sensor_id;sensor_type;location;lat;lon;timestamp;P1;durP1;ratioP1;P2;durP2;ratioP2
57593;SDS011;43423;46.510;6.686;2024-01-30T00:01:42;9.48;;;4.70;;
57593;SDS011;43423;46.510;6.686;2024-01-30T00:04:08;10.63;;;5.20;;
57593;SDS011;43423;46.510;6.686;2024-01-30T00:06:34;11.02;;;5.30;;
57593;SDS011;43423;46.510;6.686;2024-01-30T00:09:00;10.10;;;6.00;;
57593;SDS011;43423;46.510;6.686;2024-01-30T00:11:25;11.45;;;5.68;;
57593;SDS011;43423;46.510;6.686;2024-01-30T00:13:51;10.07;;;5.75;;
57593;SDS011;43423;46.510;6.686;2024-01-30T00:16:20;12.25;;;5.18;;
57593;SDS011;43423;46.510;6.686;2024-01-30T00:18:47;13.23;;;4.97;;
57593;SDS011;43423;46.510;6.686;2024-01-30T00:21:13;11.35;;;6.05;;
57593;SDS011;43423;46.510;6.686;2024-01-30T00:23:39;13.05;;;6.25;;
57593;SDS011;43423;46.510;6.686;2024-01-30T00:26:04;13.02;;;6.13;;
57593;SDS011;43423;46.510;6.686;2024-01-30T00:28:30;13.55;;;6.00;;
57593;SDS011;43423;46.510;6.686;2024-01-30T00:30:56;10.43;;;5.65;;
57593;SDS011;43423;46.510;6.686;2024-01-30T00:33:22;12.10;;;5.90;;
57593;SDS011;43423;46.510;6.686;2024-01-30T00:35:47;13.93;;;6.07;;
57593;SDS011;43423;46.510;6.686;2024-01-30T00:38:13;10.60;;;5.45;;
57593;SDS011;43423;46.510;6.686;2024-01-30T00:40:38;9.55;;;5.53;;
57593;SDS011;43423;46.510;6.686;2024-01-30T00:43:04;10.52;;;5.85;;
57593;SDS011;43423;46.510;6.686;2024-01-30T00:45:30;9.63;;;5.45;;
57593;SDS011;43423;46.510;6.686;2024-01-30T00:47:55;9.30;;;5.53;;
57593;SDS011;43423;46.510;6.686;2024-01-30T00:50:21;9.65;;;5.82;;
57593;SDS011;43423;46.510;6.686;2024-01-30T00:52:47;10.85;;;5.97;;
57593;SDS011;43423;46.510;6.686;2024-01-30T00:55:12;13.30;;;5.20;;
57593;SDS011;43423;46.510;6.686;2024-01-30T00:57:39;9.77;;;5.95;;
57593;SDS011;43423;46.510;6.686;2024-01-30T01:00:07;14.63;;;6.15;;
57593;SDS011;43423;46.510;6.686;2024-01-30T01:02:34;15.70;;;6.85;;
57593;SDS011;43423;46.510;6.686;2024-01-30T01:05:00;14.45;;;7.35;;
57593;SDS011;43423;46.510;6.686;2024-01-30T01:07:27;15.68;;;7.65;;
57593;SDS011;43423;46.510;6.686;2024-01-30T01:09:52;12.95;;;6.65;;
57593;SDS011;43423;46.510;6.686;2024-01-30T01:12:18;15.77;;;7.65;;
57593;SDS011;43423;46.510;6.686;2024-01-30T01:14:44;14.32;;;6.65;;
57593;SDS011;43423;46.510;6.686;2024-01-30T01:17:09;12.60;;;5.88;;
57593;SDS011;43423;46.510;6.686;2024-01-30T01:19:35;11.65;;;6.40;;
57593;SDS011;43423;46.510;6.686;2024-01-30T01:22:01;14.13;;;6.22;;
57593;SDS011;43423;46.510;6.686;2024-01-30T01:24:26;13.20;;;5.93;;
57593;SDS011;43423;46.510;6.686;2024-01-30T01:26:52;16.40;;;6.45;;
57593;SDS011;43423;46.510;6.686;2024-01-30T01:29:17;14.43;;;7.25;;
57593;SDS011;43423;46.510;6.686;2024-01-30T01:31:43;13.68;;;6.60;;
57593;SDS011;43423;46.510;6.686;2024-01-30T01:34:09;12.52;;;6.53;;
57593;SDS011;43423;46.510;6.686;2024-01-30T01:36:36;11.75;;;6.10;;
57593;SDS011;43423;46.510;6.686;2024-01-30T01:39:01;13.77;;;6.45;;
57593;SDS011;43423;46.510;6.686;2024-01-30T01:41:32;12.00;;;5.90;;
57593;SDS011;43423;46.510;6.686;2024-01-30T01:43:58;11.18;;;5.78;;
57593;SDS011;43423;46.510;6.686;2024-01-30T01:46:26;11.60;;;6.10;;
57593;SDS011;43423;46.510;6.686;2024-01-30T01:48:53;12.38;;;5.93;;
57593;SDS011;43423;46.510;6.686;2024-01-30T01:51:21;13.73;;;6.15;;
57593;SDS011;43423;46.510;6.686;2024-01-30T01:53:48;16.02;;;6.70;;
57593;SDS011;43423;46.510;6.686;2024-01-30T01:56:14;12.70;;;5.35;;
57593;SDS011;43423;46.510;6.686;2024-01-30T01:58:40;13.48;;;6.20;;
57593;SDS011;43423;46.510;6.686;2024-01-30T02:01:06;12.57;;;6.80;;
57593;SDS011;43423;46.510;6.686;2024-01-30T02:03:33;14.25;;;6.53;;
57593;SDS011;43423;46.510;6.686;2024-01-30T02:05:59;12.85;;;6.13;;
57593;SDS011;43423;46.510;6.686;2024-01-30T02:08:27;14.18;;;6.25;;
57593;SDS011;43423;46.510;6.686;2024-01-30T02:10:53;13.45;;;6.07;;
57593;SDS011;43423;46.510;6.686;2024-01-30T02:13:20;10.95;;;6.13;;
57593;SDS011;43423;46.510;6.686;2024-01-30T02:15:50;9.32;;;5.65;;
57593;SDS011;43423;46.510;6.686;2024-01-30T02:18:16;10.60;;;5.68;;
57593;SDS011;43423;46.510;6.686;2024-01-30T02:20:42;15.93;;;6.55;;
57593;SDS011;43423;46.510;6.686;2024-01-30T02:23:09;11.90;;;6.38;;
57593;SDS011;43423;46.510;6.686;2024-01-30T02:25:38;14.40;;;5.57;;
57593;SDS011;43423;46.510;6.686;2024-01-30T02:28:10;15.52;;;6.95;;
57593;SDS011;43423;46.510;6.686;2024-01-30T02:30:40;12.38;;;5.43;;
57593;SDS011;43423;46.510;6.686;2024-01-30T02:33:07;17.08;;;6.65;;
57593;SDS011;43423;46.510;6.686;2024-01-30T02:35:33;11.73;;;5.65;;
57593;SDS011;43423;46.510;6.686;2024-01-30T02:37:59;16.75;;;6.85;;
57593;SDS011;43423;46.510;6.686;2024-01-30T02:40:25;11.98;;;5.55;;
57593;SDS011;43423;46.510;6.686;2024-01-30T02:42:51;13.88;;;6.18;;
57593;SDS011;43423;46.510;6.686;2024-01-30T02:45:17;13.30;;;6.47;;
57593;SDS011;43423;46.510;6.686;2024-01-30T02:47:42;9.43;;;5.30;;
57593;SDS011;43423;46.510;6.686;2024-01-30T02:50:08;11.90;;;6.15;;
57593;SDS011;43423;46.510;6.686;2024-01-30T02:52:34;14.23;;;6.13;;
57593;SDS011;43423;46.510;6.686;2024-01-30T02:55:00;13.48;;;5.65;;
57593;SDS011;43423;46.510;6.686;2024-01-30T02:57:26;12.65;;;5.85;;
57593;SDS011;43423;46.510;6.686;2024-01-30T02:59:52;11.20;;;5.60;;
57593;SDS011;43423;46.510;6.686;2024-01-30T03:02:18;12.00;;;6.32;;
57593;SDS011;43423;46.510;6.686;2024-01-30T03:04:43;12.98;;;6.22;;
57593;SDS011;43423;46.510;6.686;2024-01-30T03:07:09;15.25;;;6.60;;
57593;SDS011;43423;46.510;6.686;2024-01-30T03:12:01;16.23;;;5.93;;
57593;SDS011;43423;46.510;6.686;2024-01-30T03:14:29;15.70;;;7.22;;
57593;SDS011;43423;46.510;6.686;2024-01-30T03:16:58;10.20;;;6.17;;
57593;SDS011;43423;46.510;6.686;2024-01-30T03:19:24;12.57;;;6.63;;
57593;SDS011;43423;46.510;6.686;2024-01-30T03:21:49;13.52;;;6.70;;
57593;SDS011;43423;46.510;6.686;2024-01-30T03:24:15;17.23;;;7.47;;
57593;SDS011;43423;46.510;6.686;2024-01-30T03:26:41;15.48;;;7.47;;
57593;SDS011;43423;46.510;6.686;2024-01-30T03:29:07;14.43;;;7.82;;
57593;SDS011;43423;46.510;6.686;2024-01-30T03:31:32;14.52;;;7.25;;
57593;SDS011;43423;46.510;6.686;2024-01-30T03:33:58;15.68;;;7.43;;
57593;SDS011;43423;46.510;6.686;2024-01-30T03:36:24;15.45;;;6.80;;
57593;SDS011;43423;46.510;6.686;2024-01-30T03:38:50;15.60;;;7.35;;
57593;SDS011;43423;46.510;6.686;2024-01-30T03:41:15;12.95;;;6.57;;
57593;SDS011;43423;46.510;6.686;2024-01-30T03:43:41;11.27;;;6.18;;
57593;SDS011;43423;46.510;6.686;2024-01-30T03:46:07;17.23;;;6.80;;
57593;SDS011;43423;46.510;6.686;2024-01-30T03:48:33;14.95;;;6.70;;
57593;SDS011;43423;46.510;6.686;2024-01-30T03:50:58;13.80;;;6.75;;
57593;SDS011;43423;46.510;6.686;2024-01-30T03:53:24;14.90;;;7.03;;
57593;SDS011;43423;46.510;6.686;2024-01-30T03:55:49;12.15;;;6.00;;
57593;SDS011;43423;46.510;6.686;2024-01-30T03:58:15;11.35;;;5.10;;
57593;SDS011;43423;46.510;6.686;2024-01-30T04:00:41;11.82;;;5.90;;
57593;SDS011;43423;46.510;6.686;2024-01-30T04:03:06;14.45;;;5.68;;
57593;SDS011;43423;46.510;6.686;2024-01-30T04:05:32;12.63;;;5.60;;
57593;SDS011;43423;46.510;6.686;2024-01-30T04:07:58;13.30;;;6.32;;
57593;SDS011;43423;46.510;6.686;2024-01-30T04:10:24;10.77;;;5.75;;
57593;SDS011;43423;46.510;6.686;2024-01-30T04:12:52;10.90;;;6.55;;
57593;SDS011;43423;46.510;6.686;2024-01-30T04:15:19;10.65;;;5.88;;
57593;SDS011;43423;46.510;6.686;2024-01-30T04:17:45;14.90;;;6.82;;
57593;SDS011;43423;46.510;6.686;2024-01-30T04:20:14;12.13;;;5.25;;
57593;SDS011;43423;46.510;6.686;2024-01-30T04:22:42;12.77;;;6.68;;
57593;SDS011;43423;46.510;6.686;2024-01-30T04:25:08;11.73;;;6.07;;
57593;SDS011;43423;46.510;6.686;2024-01-30T04:27:34;12.35;;;6.32;;
57593;SDS011;43423;46.510;6.686;2024-01-30T04:30:00;12.88;;;5.15;;
57593;SDS011;43423;46.510;6.686;2024-01-30T04:32:25;11.90;;;5.95;;
57593;SDS011;43423;46.510;6.686;2024-01-30T04:34:51;12.18;;;6.07;;
57593;SDS011;43423;46.510;6.686;2024-01-30T04:37:17;13.80;;;6.03;;
57593;SDS011;43423;46.510;6.686;2024-01-30T04:39:42;14.27;;;6.10;;
57593;SDS011;43423;46.510;6.686;2024-01-30T04:42:08;9.77;;;5.30;;
57593;SDS011;43423;46.510;6.686;2024-01-30T04:44:34;13.95;;;6.55;;
57593;SDS011;43423;46.510;6.686;2024-01-30T04:46:59;12.52;;;6.75;;
57593;SDS011;43423;46.510;6.686;2024-01-30T04:49:27;12.18;;;7.22;;
57593;SDS011;43423;46.510;6.686;2024-01-30T04:51:53;19.45;;;7.25;;
57593;SDS011;43423;46.510;6.686;2024-01-30T04:54:18;14.30;;;6.95;;
57593;SDS011;43423;46.510;6.686;2024-01-30T04:56:44;11.73;;;5.68;;
57593;SDS011;43423;46.510;6.686;2024-01-30T04:59:09;14.02;;;6.75;;
57593;SDS011;43423;46.510;6.686;2024-01-30T05:01:35;12.45;;;6.35;;
57593;SDS011;43423;46.510;6.686;2024-01-30T05:04:01;12.00;;;7.13;;
57593;SDS011;43423;46.510;6.686;2024-01-30T05:06:27;12.80;;;6.70;;
57593;SDS011;43423;46.510;6.686;2024-01-30T05:08:53;14.75;;;6.90;;
57593;SDS011;43423;46.510;6.686;2024-01-30T05:11:19;15.90;;;6.75;;
57593;SDS011;43423;46.510;6.686;2024-01-30T05:13:44;12.07;;;6.47;;
57593;SDS011;43423;46.510;6.686;2024-01-30T05:16:10;15.93;;;6.90;;
57593;SDS011;43423;46.510;6.686;2024-01-30T05:18:36;12.65;;;6.70;;
57593;SDS011;43423;46.510;6.686;2024-01-30T05:21:02;12.45;;;6.97;;
57593;SDS011;43423;46.510;6.686;2024-01-30T05:23:28;12.93;;;6.35;;
57593;SDS011;43423;46.510;6.686;2024-01-30T05:25:54;15.48;;;6.97;;
57593;SDS011;43423;46.510;6.686;2024-01-30T05:28:19;10.88;;;5.40;;
57593;SDS011;43423;46.510;6.686;2024-01-30T05:30:45;11.85;;;6.28;;
57593;SDS011;43423;46.510;6.686;2024-01-30T05:33:11;11.70;;;6.25;;
57593;SDS011;43423;46.510;6.686;2024-01-30T05:35:37;10.52;;;5.63;;
57593;SDS011;43423;46.510;6.686;2024-01-30T05:38:03;18.20;;;6.53;;
57593;SDS011;43423;46.510;6.686;2024-01-30T05:40:32;12.50;;;6.05;;
57593;SDS011;43423;46.510;6.686;2024-01-30T05:42:58;10.98;;;6.22;;
57593;SDS011;43423;46.510;6.686;2024-01-30T05:45:26;13.05;;;6.40;;
57593;SDS011;43423;46.510;6.686;2024-01-30T05:47:52;12.80;;;5.75;;
57593;SDS011;43423;46.510;6.686;2024-01-30T05:50:19;12.20;;;6.47;;
57593;SDS011;43423;46.510;6.686;2024-01-30T05:52:45;11.68;;;5.93;;
57593;SDS011;43423;46.510;6.686;2024-01-30T05:55:11;13.00;;;6.00;;
57593;SDS011;43423;46.510;6.686;2024-01-30T05:57:37;11.23;;;6.25;;
57593;SDS011;43423;46.510;6.686;2024-01-30T06:00:04;11.43;;;6.22;;
57593;SDS011;43423;46.510;6.686;2024-01-30T06:02:30;14.43;;;7.03;;
57593;SDS011;43423;46.510;6.686;2024-01-30T06:04:56;12.40;;;6.82;;
57593;SDS011;43423;46.510;6.686;2024-01-30T06:07:22;9.70;;;5.93;;
57593;SDS011;43423;46.510;6.686;2024-01-30T06:09:48;13.98;;;7.57;;
57593;SDS011;43423;46.510;6.686;2024-01-30T06:12:13;14.02;;;6.47;;
57593;SDS011;43423;46.510;6.686;2024-01-30T06:14:39;17.98;;;7.07;;
57593;SDS011;43423;46.510;6.686;2024-01-30T06:17:07;14.85;;;6.97;;
57593;SDS011;43423;46.510;6.686;2024-01-30T06:19:34;14.05;;;7.47;;
57593;SDS011;43423;46.510;6.686;2024-01-30T06:21:59;16.65;;;7.05;;
57593;SDS011;43423;46.510;6.686;2024-01-30T06:24:25;15.02;;;7.15;;
57593;SDS011;43423;46.510;6.686;2024-01-30T06:26:51;12.20;;;6.68;;
57593;SDS011;43423;46.510;6.686;2024-01-30T06:29:17;18.60;;;7.28;;
57593;SDS011;43423;46.510;6.686;2024-01-30T06:31:42;16.15;;;6.72;;
57593;SDS011;43423;46.510;6.686;2024-01-30T06:34:11;14.25;;;7.82;;
57593;SDS011;43423;46.510;6.686;2024-01-30T06:36:37;12.07;;;6.82;;
57593;SDS011;43423;46.510;6.686;2024-01-30T06:39:03;12.25;;;6.93;;
57593;SDS011;43423;46.510;6.686;2024-01-30T06:41:29;10.43;;;6.43;;
57593;SDS011;43423;46.510;6.686;2024-01-30T06:43:55;13.82;;;6.53;;
57593;SDS011;43423;46.510;6.686;2024-01-30T06:46:21;13.05;;;6.43;;
57593;SDS011;43423;46.510;6.686;2024-01-30T06:48:47;15.90;;;6.15;;
57593;SDS011;43423;46.510;6.686;2024-01-30T06:51:12;14.43;;;6.70;;
57593;SDS011;43423;46.510;6.686;2024-01-30T06:53:38;11.43;;;6.15;;
57593;SDS011;43423;46.510;6.686;2024-01-30T06:56:04;10.98;;;5.82;;
57593;SDS011;43423;46.510;6.686;2024-01-30T06:58:30;11.65;;;6.07;;
57593;SDS011;43423;46.510;6.686;2024-01-30T07:00:56;16.15;;;7.03;;
57593;SDS011;43423;46.510;6.686;2024-01-30T07:03:22;14.75;;;7.47;;
57593;SDS011;43423;46.510;6.686;2024-01-30T07:05:47;12.05;;;6.53;;
57593;SDS011;43423;46.510;6.686;2024-01-30T07:08:15;13.23;;;7.18;;
57593;SDS011;43423;46.510;6.686;2024-01-30T07:10:42;15.20;;;7.20;;
57593;SDS011;43423;46.510;6.686;2024-01-30T07:13:11;15.82;;;8.15;;
57593;SDS011;43423;46.510;6.686;2024-01-30T07:15:37;16.75;;;7.38;;
57593;SDS011;43423;46.510;6.686;2024-01-30T07:18:03;17.45;;;7.57;;
57593;SDS011;43423;46.510;6.686;2024-01-30T07:20:30;15.52;;;7.13;;
57593;SDS011;43423;46.510;6.686;2024-01-30T07:22:57;17.35;;;7.32;;
57593;SDS011;43423;46.510;6.686;2024-01-30T07:25:23;14.63;;;8.13;;
57593;SDS011;43423;46.510;6.686;2024-01-30T07:27:55;13.75;;;7.45;;
57593;SDS011;43423;46.510;6.686;2024-01-30T07:30:21;12.77;;;6.78;;
57593;SDS011;43423;46.510;6.686;2024-01-30T07:32:47;15.48;;;7.45;;
57593;SDS011;43423;46.510;6.686;2024-01-30T07:35:13;15.25;;;6.97;;
57593;SDS011;43423;46.510;6.686;2024-01-30T07:37:39;14.68;;;7.35;;
57593;SDS011;43423;46.510;6.686;2024-01-30T07:40:05;12.98;;;6.47;;
57593;SDS011;43423;46.510;6.686;2024-01-30T07:42:32;14.63;;;6.40;;
57593;SDS011;43423;46.510;6.686;2024-01-30T07:44:58;16.77;;;6.82;;
57593;SDS011;43423;46.510;6.686;2024-01-30T07:47:24;12.32;;;6.32;;
57593;SDS011;43423;46.510;6.686;2024-01-30T07:49:49;16.75;;;7.07;;
57593;SDS011;43423;46.510;6.686;2024-01-30T07:52:15;11.13;;;6.40;;
57593;SDS011;43423;46.510;6.686;2024-01-30T07:54:50;14.73;;;7.82;;
57593;SDS011;43423;46.510;6.686;2024-01-30T07:57:17;12.65;;;7.60;;
57593;SDS011;43423;46.510;6.686;2024-01-30T07:59:44;22.52;;;8.00;;
57593;SDS011;43423;46.510;6.686;2024-01-30T08:02:10;13.75;;;7.50;;
57593;SDS011;43423;46.510;6.686;2024-01-30T08:04:36;14.38;;;7.47;;
57593;SDS011;43423;46.510;6.686;2024-01-30T08:07:02;15.02;;;7.90;;
57593;SDS011;43423;46.510;6.686;2024-01-30T08:09:28;15.55;;;7.75;;
57593;SDS011;43423;46.510;6.686;2024-01-30T08:11:54;13.98;;;7.60;;
57593;SDS011;43423;46.510;6.686;2024-01-30T08:14:19;16.98;;;8.63;;
57593;SDS011;43423;46.510;6.686;2024-01-30T08:16:45;17.17;;;8.73;;
57593;SDS011;43423;46.510;6.686;2024-01-30T08:19:11;15.52;;;8.70;;
57593;SDS011;43423;46.510;6.686;2024-01-30T08:21:37;13.77;;;7.72;;
57593;SDS011;43423;46.510;6.686;2024-01-30T08:24:06;17.23;;;7.88;;
57593;SDS011;43423;46.510;6.686;2024-01-30T08:26:32;13.68;;;7.60;;
57593;SDS011;43423;46.510;6.686;2024-01-30T08:28:58;12.98;;;8.55;;
57593;SDS011;43423;46.510;6.686;2024-01-30T08:31:24;14.32;;;8.45;;
57593;SDS011;43423;46.510;6.686;2024-01-30T08:33:49;14.98;;;8.45;;
57593;SDS011;43423;46.510;6.686;2024-01-30T08:36:15;14.82;;;7.82;;
57593;SDS011;43423;46.510;6.686;2024-01-30T08:38:41;16.08;;;7.55;;
57593;SDS011;43423;46.510;6.686;2024-01-30T08:41:07;13.45;;;8.52;;
57593;SDS011;43423;46.510;6.686;2024-01-30T08:43:33;16.10;;;8.20;;
57593;SDS011;43423;46.510;6.686;2024-01-30T08:46:00;13.73;;;8.50;;
57593;SDS011;43423;46.510;6.686;2024-01-30T08:48:25;17.48;;;8.38;;
57593;SDS011;43423;46.510;6.686;2024-01-30T08:50:51;15.70;;;8.18;;
57593;SDS011;43423;46.510;6.686;2024-01-30T08:53:17;13.10;;;8.00;;
57593;SDS011;43423;46.510;6.686;2024-01-30T08:55:43;15.75;;;7.82;;
57593;SDS011;43423;46.510;6.686;2024-01-30T08:58:08;13.68;;;8.13;;
57593;SDS011;43423;46.510;6.686;2024-01-30T09:00:34;16.55;;;8.57;;
57593;SDS011;43423;46.510;6.686;2024-01-30T09:03:00;15.18;;;8.90;;
57593;SDS011;43423;46.510;6.686;2024-01-30T09:05:25;17.45;;;9.18;;
57593;SDS011;43423;46.510;6.686;2024-01-30T09:07:51;17.42;;;8.63;;
57593;SDS011;43423;46.510;6.686;2024-01-30T09:10:17;24.20;;;9.38;;
57593;SDS011;43423;46.510;6.686;2024-01-30T09:12:42;15.77;;;8.95;;
57593;SDS011;43423;46.510;6.686;2024-01-30T09:15:08;17.02;;;8.55;;
57593;SDS011;43423;46.510;6.686;2024-01-30T09:17:34;16.98;;;8.55;;
57593;SDS011;43423;46.510;6.686;2024-01-30T09:20:00;18.50;;;8.50;;
57593;SDS011;43423;46.510;6.686;2024-01-30T09:22:25;17.45;;;8.25;;
57593;SDS011;43423;46.510;6.686;2024-01-30T09:24:51;18.25;;;9.05;;
57593;SDS011;43423;46.510;6.686;2024-01-30T09:27:17;17.73;;;8.80;;
57593;SDS011;43423;46.510;6.686;2024-01-30T09:29:42;18.65;;;8.65;;
57593;SDS011;43423;46.510;6.686;2024-01-30T09:32:08;17.35;;;9.45;;
57593;SDS011;43423;46.510;6.686;2024-01-30T09:34:34;18.13;;;9.23;;
57593;SDS011;43423;46.510;6.686;2024-01-30T09:37:00;16.05;;;9.45;;
57593;SDS011;43423;46.510;6.686;2024-01-30T09:39:26;15.70;;;8.95;;
57593;SDS011;43423;46.510;6.686;2024-01-30T09:41:55;20.67;;;10.23;;
57593;SDS011;43423;46.510;6.686;2024-01-30T09:44:28;22.35;;;9.93;;
57593;SDS011;43423;46.510;6.686;2024-01-30T09:46:55;15.07;;;9.27;;
57593;SDS011;43423;46.510;6.686;2024-01-30T09:49:20;17.77;;;9.65;;
57593;SDS011;43423;46.510;6.686;2024-01-30T09:51:49;19.30;;;8.77;;
57593;SDS011;43423;46.510;6.686;2024-01-30T09:54:16;18.25;;;10.10;;
57593;SDS011;43423;46.510;6.686;2024-01-30T09:56:43;18.42;;;9.93;;
57593;SDS011;43423;46.510;6.686;2024-01-30T09:59:09;17.88;;;9.27;;
57593;SDS011;43423;46.510;6.686;2024-01-30T10:01:35;16.58;;;9.57;;
57593;SDS011;43423;46.510;6.686;2024-01-30T10:04:02;18.50;;;9.68;;
57593;SDS011;43423;46.510;6.686;2024-01-30T10:06:27;21.42;;;11.07;;
57593;SDS011;43423;46.510;6.686;2024-01-30T10:08:54;17.38;;;9.07;;
57593;SDS011;43423;46.510;6.686;2024-01-30T10:11:19;23.02;;;9.43;;
57593;SDS011;43423;46.510;6.686;2024-01-30T10:13:45;19.58;;;10.73;;
57593;SDS011;43423;46.510;6.686;2024-01-30T10:16:13;22.17;;;9.90;;
57593;SDS011;43423;46.510;6.686;2024-01-30T10:18:40;22.90;;;10.10;;
57593;SDS011;43423;46.510;6.686;2024-01-30T10:21:06;19.50;;;10.00;;
57593;SDS011;43423;46.510;6.686;2024-01-30T10:23:33;17.95;;;10.27;;
57593;SDS011;43423;46.510;6.686;2024-01-30T10:25:59;20.10;;;10.15;;
57593;SDS011;43423;46.510;6.686;2024-01-30T10:28:26;23.85;;;10.98;;
57593;SDS011;43423;46.510;6.686;2024-01-30T10:30:58;19.92;;;10.90;;
57593;SDS011;43423;46.510;6.686;2024-01-30T10:33:29;19.95;;;10.40;;
57593;SDS011;43423;46.510;6.686;2024-01-30T10:36:04;17.85;;;9.52;;
57593;SDS011;43423;46.510;6.686;2024-01-30T10:38:31;17.75;;;9.93;;
57593;SDS011;43423;46.510;6.686;2024-01-30T10:40:58;18.02;;;9.93;;
57593;SDS011;43423;46.510;6.686;2024-01-30T10:43:32;18.92;;;9.88;;
57593;SDS011;43423;46.510;6.686;2024-01-30T10:46:10;20.45;;;10.20;;
57593;SDS011;43423;46.510;6.686;2024-01-30T10:48:42;19.25;;;10.13;;
57593;SDS011;43423;46.510;6.686;2024-01-30T10:51:10;19.10;;;11.10;;
57593;SDS011;43423;46.510;6.686;2024-01-30T10:53:38;18.55;;;10.23;;
57593;SDS011;43423;46.510;6.686;2024-01-30T10:56:04;20.25;;;10.45;;
57593;SDS011;43423;46.510;6.686;2024-01-30T10:58:31;21.02;;;10.90;;
57593;SDS011;43423;46.510;6.686;2024-01-30T11:00:56;20.20;;;11.18;;
57593;SDS011;43423;46.510;6.686;2024-01-30T11:03:24;19.05;;;10.52;;
57593;SDS011;43423;46.510;6.686;2024-01-30T11:05:50;20.15;;;10.60;;
57593;SDS011;43423;46.510;6.686;2024-01-30T11:08:26;20.45;;;10.55;;
57593;SDS011;43423;46.510;6.686;2024-01-30T11:10:57;21.08;;;11.13;;
57593;SDS011;43423;46.510;6.686;2024-01-30T11:13:27;16.85;;;10.63;;
57593;SDS011;43423;46.510;6.686;2024-01-30T11:15:54;23.10;;;10.85;;
57593;SDS011;43423;46.510;6.686;2024-01-30T11:18:24;20.30;;;10.65;;
57593;SDS011;43423;46.510;6.686;2024-01-30T11:20:56;21.52;;;10.60;;
57593;SDS011;43423;46.510;6.686;2024-01-30T11:23:30;24.95;;;10.13;;
57593;SDS011;43423;46.510;6.686;2024-01-30T11:25:56;16.92;;;9.60;;
57593;SDS011;43423;46.510;6.686;2024-01-30T11:28:23;18.42;;;10.95;;
57593;SDS011;43423;46.510;6.686;2024-01-30T11:30:49;19.63;;;10.30;;
57593;SDS011;43423;46.510;6.686;2024-01-30T11:33:30;23.00;;;11.68;;
57593;SDS011;43423;46.510;6.686;2024-01-30T11:35:57;23.02;;;11.98;;
57593;SDS011;43423;46.510;6.686;2024-01-30T11:38:25;24.08;;;11.70;;
57593;SDS011;43423;46.510;6.686;2024-01-30T11:40:52;23.75;;;11.98;;
57593;SDS011;43423;46.510;6.686;2024-01-30T11:43:20;20.05;;;10.48;;
57593;SDS011;43423;46.510;6.686;2024-01-30T11:45:45;20.50;;;11.02;;
57593;SDS011;43423;46.510;6.686;2024-01-30T11:48:12;24.77;;;12.10;;
57593;SDS011;43423;46.510;6.686;2024-01-30T11:50:38;23.17;;;11.10;;
57593;SDS011;43423;46.510;6.686;2024-01-30T11:53:05;26.73;;;11.20;;
57593;SDS011;43423;46.510;6.686;2024-01-30T11:55:30;20.95;;;11.32;;
57593;SDS011;43423;46.510;6.686;2024-01-30T11:57:57;24.85;;;11.38;;
57593;SDS011;43423;46.510;6.686;2024-01-30T12:00:23;21.40;;;10.15;;
57593;SDS011;43423;46.510;6.686;2024-01-30T12:02:50;21.95;;;10.27;;
57593;SDS011;43423;46.510;6.686;2024-01-30T12:05:16;19.55;;;10.98;;
57593;SDS011;43423;46.510;6.686;2024-01-30T12:07:44;23.95;;;12.40;;
57593;SDS011;43423;46.510;6.686;2024-01-30T12:10:11;24.27;;;12.32;;
57593;SDS011;43423;46.510;6.686;2024-01-30T12:12:39;22.63;;;11.73;;
57593;SDS011;43423;46.510;6.686;2024-01-30T12:15:07;20.17;;;10.65;;
57593;SDS011;43423;46.510;6.686;2024-01-30T12:17:34;22.42;;;11.13;;
57593;SDS011;43423;46.510;6.686;2024-01-30T12:27:36;24.85;;;11.45;;
57593;SDS011;43423;46.510;6.686;2024-01-30T12:30:09;24.42;;;11.77;;
57593;SDS011;43423;46.510;6.686;2024-01-30T12:32:36;23.48;;;11.27;;
57593;SDS011;43423;46.510;6.686;2024-01-30T12:35:07;30.13;;;11.32;;
57593;SDS011;43423;46.510;6.686;2024-01-30T12:37:39;23.85;;;12.80;;
57593;SDS011;43423;46.510;6.686;2024-01-30T12:40:05;23.30;;;11.25;;
57593;SDS011;43423;46.510;6.686;2024-01-30T12:42:33;23.50;;;11.85;;
57593;SDS011;43423;46.510;6.686;2024-01-30T12:44:58;24.63;;;12.00;;
57593;SDS011;43423;46.510;6.686;2024-01-30T12:47:25;25.60;;;12.23;;
57593;SDS011;43423;46.510;6.686;2024-01-30T12:49:51;27.92;;;11.80;;
57593;SDS011;43423;46.510;6.686;2024-01-30T12:52:20;21.77;;;12.63;;
57593;SDS011;43423;46.510;6.686;2024-01-30T12:54:50;26.30;;;11.95;;
57593;SDS011;43423;46.510;6.686;2024-01-30T12:57:16;21.30;;;11.43;;
57593;SDS011;43423;46.510;6.686;2024-01-30T12:59:43;21.35;;;11.55;;
57593;SDS011;43423;46.510;6.686;2024-01-30T13:02:11;23.08;;;11.00;;
57593;SDS011;43423;46.510;6.686;2024-01-30T13:04:37;20.40;;;11.60;;
57593;SDS011;43423;46.510;6.686;2024-01-30T13:07:03;19.75;;;10.85;;
57593;SDS011;43423;46.510;6.686;2024-01-30T13:09:29;24.40;;;11.32;;
57593;SDS011;43423;46.510;6.686;2024-01-30T13:11:56;20.80;;;10.55;;
57593;SDS011;43423;46.510;6.686;2024-01-30T13:14:22;23.33;;;10.77;;
57593;SDS011;43423;46.510;6.686;2024-01-30T13:16:47;17.83;;;9.82;;
57593;SDS011;43423;46.510;6.686;2024-01-30T13:19:13;21.17;;;11.52;;
57593;SDS011;43423;46.510;6.686;2024-01-30T13:21:39;22.23;;;11.85;;
57593;SDS011;43423;46.510;6.686;2024-01-30T13:24:04;21.00;;;11.43;;
57593;SDS011;43423;46.510;6.686;2024-01-30T13:26:33;20.02;;;11.90;;
57593;SDS011;43423;46.510;6.686;2024-01-30T13:28:59;21.15;;;10.65;;
57593;SDS011;43423;46.510;6.686;2024-01-30T13:31:25;21.80;;;11.43;;
57593;SDS011;43423;46.510;6.686;2024-01-30T13:33:50;24.52;;;12.18;;
57593;SDS011;43423;46.510;6.686;2024-01-30T13:36:16;21.10;;;11.25;;
57593;SDS011;43423;46.510;6.686;2024-01-30T13:38:42;17.83;;;9.55;;
57593;SDS011;43423;46.510;6.686;2024-01-30T13:41:08;21.15;;;9.95;;
57593;SDS011;43423;46.510;6.686;2024-01-30T13:43:33;21.58;;;9.82;;
57593;SDS011;43423;46.510;6.686;2024-01-30T13:45:59;17.75;;;10.02;;
57593;SDS011;43423;46.510;6.686;2024-01-30T13:48:25;20.25;;;10.40;;
57593;SDS011;43423;46.510;6.686;2024-01-30T13:50:50;20.92;;;9.93;;
57593;SDS011;43423;46.510;6.686;2024-01-30T13:53:16;27.08;;;10.70;;
57593;SDS011;43423;46.510;6.686;2024-01-30T13:55:42;19.27;;;10.32;;
57593;SDS011;43423;46.510;6.686;2024-01-30T13:58:07;20.38;;;11.10;;
57593;SDS011;43423;46.510;6.686;2024-01-30T14:00:33;21.08;;;9.95;;
57593;SDS011;43423;46.510;6.686;2024-01-30T14:02:59;19.77;;;9.40;;
57593;SDS011;43423;46.510;6.686;2024-01-30T14:05:26;20.35;;;9.45;;
57593;SDS011;43423;46.510;6.686;2024-01-30T14:07:54;21.65;;;11.15;;
57593;SDS011;43423;46.510;6.686;2024-01-30T14:10:21;20.00;;;10.30;;
57593;SDS011;43423;46.510;6.686;2024-01-30T14:12:47;20.75;;;10.95;;
57593;SDS011;43423;46.510;6.686;2024-01-30T14:15:15;16.27;;;9.40;;
57593;SDS011;43423;46.510;6.686;2024-01-30T14:17:44;19.85;;;10.30;;
57593;SDS011;43423;46.510;6.686;2024-01-30T14:20:10;18.33;;;9.85;;
57593;SDS011;43423;46.510;6.686;2024-01-30T14:22:36;20.58;;;10.05;;
57593;SDS011;43423;46.510;6.686;2024-01-30T14:25:02;20.00;;;10.20;;
57593;SDS011;43423;46.510;6.686;2024-01-30T14:27:29;19.60;;;9.85;;
57593;SDS011;43423;46.510;6.686;2024-01-30T14:29:55;22.50;;;10.93;;
57593;SDS011;43423;46.510;6.686;2024-01-30T14:32:21;19.20;;;9.45;;
57593;SDS011;43423;46.510;6.686;2024-01-30T14:34:49;17.88;;;9.02;;
57593;SDS011;43423;46.510;6.686;2024-01-30T14:37:15;14.73;;;9.00;;